createdAt,value
2017-09-28T00:00:43.883Z,18.60
2017-09-28T00:03:12.228Z,18.50
2017-09-28T00:05:41.287Z,18.50
2017-09-28T00:08:10.339Z,18.40
2017-09-28T00:10:38.676Z,18.40
2017-09-28T00:13:06.969Z,18.40
2017-09-28T00:15:35.254Z,18.30
2017-09-28T00:18:04.737Z,18.30
2017-09-28T00:23:02.934Z,18.20
2017-09-28T00:25:31.299Z,18.20
2017-09-28T00:27:59.591Z,18.20
2017-09-28T00:30:27.872Z,18.20
2017-09-28T00:32:56.216Z,18.10
2017-09-28T00:35:24.499Z,18.00
2017-09-28T00:37:54.301Z,18.00
2017-09-28T00:40:22.625Z,18.10
2017-09-28T00:42:50.915Z,18.10
2017-09-28T00:47:49.159Z,18.00
2017-09-28T00:50:18.207Z,17.90
2017-09-28T00:55:17.160Z,17.90
2017-09-28T00:57:46.589Z,17.80
2017-09-28T01:00:14.867Z,17.80
2017-09-28T01:02:43.210Z,17.70
2017-09-28T01:05:11.495Z,17.70
2017-09-28T01:07:39.787Z,17.70
2017-09-28T01:10:09.286Z,17.70
2017-09-28T01:12:38.336Z,17.70
2017-09-28T01:15:07.760Z,17.70
2017-09-28T01:17:36.492Z,17.80
2017-09-28T01:20:06.282Z,17.80
2017-09-28T01:22:34.573Z,17.80
2017-09-28T01:25:03.823Z,17.70
2017-09-28T01:27:32.871Z,17.70
2017-09-28T01:30:01.164Z,17.70
2017-09-28T01:32:30.603Z,17.70
2017-09-28T01:37:28.414Z,17.70
2017-09-28T01:39:57.117Z,17.80
2017-09-28T01:42:26.543Z,17.80
2017-09-28T01:44:54.823Z,17.70
2017-09-28T01:47:23.944Z,17.70
2017-09-28T01:49:52.994Z,17.70
2017-09-28T01:52:21.277Z,17.70
2017-09-28T01:54:49.635Z,17.70
2017-09-28T01:57:17.930Z,17.70
2017-09-28T01:59:46.224Z,17.70
2017-09-28T02:02:14.564Z,17.70
2017-09-28T02:04:43.619Z,17.70
2017-09-28T02:07:12.679Z,17.70
2017-09-28T02:12:11.655Z,17.70
2017-09-28T02:14:40.334Z,17.70
2017-09-28T02:17:08.666Z,17.70
2017-09-28T02:19:38.096Z,17.70
2017-09-28T02:22:07.148Z,17.70
2017-09-28T02:24:37.001Z,17.70
2017-09-28T02:27:05.287Z,17.60
2017-09-28T02:29:33.574Z,17.70
2017-09-28T02:32:03.064Z,17.60
2017-09-28T02:34:31.343Z,17.70
2017-09-28T02:36:59.626Z,17.70
2017-09-28T02:39:29.475Z,17.80
2017-09-28T02:41:57.757Z,17.80
2017-09-28T02:44:26.052Z,17.80
2017-09-28T02:46:54.378Z,17.70
2017-09-28T02:49:23.439Z,17.70
2017-09-28T02:51:51.727Z,17.70
2017-09-28T02:56:49.586Z,17.70
2017-09-28T02:59:18.635Z,17.70
2017-09-28T03:01:48.122Z,17.70
2017-09-28T03:04:16.423Z,17.70
2017-09-28T03:06:46.215Z,17.70
2017-09-28T03:11:44.474Z,17.80
2017-09-28T03:14:13.545Z,17.80
2017-09-28T03:16:43.114Z,17.80
2017-09-28T03:19:11.415Z,17.80
2017-09-28T03:24:10.449Z,17.70
2017-09-28T03:26:39.258Z,17.80
2017-09-28T03:31:37.669Z,17.90
2017-09-28T03:34:06.791Z,17.80
2017-09-28T03:36:35.469Z,17.90
2017-09-28T03:39:03.911Z,18.00
2017-09-28T03:41:32.218Z,17.90
2017-09-28T03:44:02.031Z,17.90
2017-09-28T03:46:30.363Z,17.90
2017-09-28T03:49:00.327Z,17.80
2017-09-28T03:51:29.597Z,17.80
2017-09-28T03:53:59.060Z,17.90
2017-09-28T03:56:27.466Z,17.90
2017-09-28T03:58:55.755Z,17.90
2017-09-28T04:01:24.981Z,17.90
2017-09-28T04:03:53.287Z,17.90
2017-09-28T04:06:21.626Z,17.90
2017-09-28T04:08:49.979Z,18.00
2017-09-28T04:11:18.283Z,18.00
2017-09-28T04:13:47.361Z,18.00
2017-09-28T04:16:15.971Z,18.00
2017-09-28T04:23:43.859Z,17.90
2017-09-28T04:26:12.176Z,17.80
2017-09-28T04:28:42.052Z,17.90
2017-09-28T04:31:10.406Z,17.90
2017-09-28T04:33:39.499Z,17.90
2017-09-28T04:36:09.085Z,18.00
2017-09-28T04:38:38.511Z,17.90
2017-09-28T04:41:06.796Z,18.00
2017-09-28T04:43:35.431Z,18.10
2017-09-28T04:46:05.288Z,18.00
2017-09-28T04:48:33.568Z,17.90
2017-09-28T04:51:01.915Z,17.90
2017-09-28T04:53:30.208Z,17.80
2017-09-28T04:55:59.272Z,17.70
2017-09-28T04:58:29.118Z,17.70
2017-09-28T05:00:57.412Z,17.80
2017-09-28T05:03:26.092Z,17.80
2017-09-28T05:05:54.430Z,17.90
2017-09-28T05:08:23.856Z,17.90
2017-09-28T05:10:52.135Z,17.90
2017-09-28T05:13:21.226Z,18.00
2017-09-28T05:15:50.286Z,18.00
2017-09-28T05:18:19.340Z,18.00
2017-09-28T05:20:48.807Z,17.90
2017-09-28T05:23:17.104Z,18.00
2017-09-28T05:25:45.446Z,18.00
2017-09-28T05:28:13.788Z,18.00
2017-09-28T05:30:42.840Z,18.00
2017-09-28T05:33:11.891Z,18.00
2017-09-28T05:35:40.987Z,18.00
2017-09-28T05:40:39.555Z,18.00
2017-09-28T05:43:09.398Z,18.00
2017-09-28T05:45:37.683Z,17.90
2017-09-28T05:48:05.976Z,17.80
2017-09-28T05:53:03.844Z,17.80
2017-09-28T05:55:32.135Z,17.80
2017-09-28T05:58:00.726Z,17.80
2017-09-28T06:00:29.123Z,17.70
2017-09-28T06:05:27.312Z,17.80
2017-09-28T06:07:55.634Z,17.80
2017-09-28T06:10:24.314Z,17.90
2017-09-28T06:12:53.775Z,17.90
2017-09-28T06:17:52.008Z,18.20
2017-09-28T06:20:21.128Z,18.20
2017-09-28T06:22:50.951Z,18.20
2017-09-28T06:25:19.287Z,18.20
2017-09-28T06:27:47.838Z,18.10
2017-09-28T06:30:16.128Z,18.10
2017-09-28T06:32:45.703Z,18.20
2017-09-28T06:35:14.255Z,18.20
2017-09-28T06:37:43.679Z,18.20
2017-09-28T06:40:11.971Z,18.20
2017-09-28T06:42:40.361Z,18.20
2017-09-28T06:45:08.652Z,18.20
2017-09-28T06:47:36.978Z,18.20
2017-09-28T06:50:05.332Z,18.30
2017-09-28T06:52:35.123Z,18.30
2017-09-28T06:55:03.414Z,18.20
2017-09-28T06:57:31.741Z,18.20
2017-09-28T07:00:00.085Z,18.10
2017-09-28T07:02:29.230Z,18.00
2017-09-28T07:04:57.598Z,18.00
2017-09-28T07:07:27.047Z,18.10
2017-09-28T07:09:55.734Z,18.10
2017-09-28T07:12:24.366Z,18.20
2017-09-28T07:14:53.428Z,18.20
2017-09-28T07:17:22.480Z,18.30
2017-09-28T07:19:51.086Z,18.30
2017-09-28T07:22:19.872Z,18.40
2017-09-28T07:24:48.159Z,18.30
2017-09-28T07:27:16.614Z,18.20
2017-09-28T07:29:44.935Z,18.30
2017-09-28T07:32:14.703Z,18.40
2017-09-28T07:34:43.672Z,18.40
2017-09-28T07:37:12.368Z,18.40
2017-09-28T07:39:40.704Z,18.40
2017-09-28T07:42:10.956Z,18.50
2017-09-28T07:44:40.757Z,18.50
2017-09-28T07:49:39.000Z,18.50
2017-09-28T07:52:07.301Z,18.50
2017-09-28T07:54:35.647Z,18.40
2017-09-28T07:57:03.939Z,18.40
2017-09-28T07:59:32.226Z,18.40
2017-09-28T08:02:00.570Z,18.40
2017-09-28T08:04:29.997Z,18.40
2017-09-28T08:06:58.296Z,18.40
2017-09-28T08:09:26.652Z,18.30
2017-09-28T08:14:24.899Z,18.30
2017-09-28T08:19:23.521Z,18.20
2017-09-28T08:21:52.592Z,18.00
2017-09-28T08:26:50.861Z,17.90
2017-09-28T08:29:19.159Z,17.80
2017-09-28T08:31:47.495Z,17.80
2017-09-28T08:34:15.805Z,17.80
2017-09-28T08:36:44.107Z,17.70
2017-09-28T08:39:12.464Z,17.80
2017-09-28T08:41:41.521Z,17.90
2017-09-28T08:44:09.826Z,17.90
2017-09-28T08:46:38.168Z,17.90
2017-09-28T08:49:06.471Z,17.90
2017-09-28T08:51:34.771Z,17.90
2017-09-28T08:54:03.109Z,17.90
2017-09-28T08:56:32.920Z,18.00
2017-09-28T08:59:01.977Z,18.00
2017-09-28T09:01:30.334Z,18.20
2017-09-28T09:03:59.387Z,18.20
2017-09-28T09:06:28.823Z,18.30
2017-09-28T09:08:58.671Z,18.20
2017-09-28T09:11:26.974Z,18.20
2017-09-28T09:16:25.259Z,18.40
2017-09-28T09:18:53.553Z,18.50
2017-09-28T09:21:21.868Z,18.70
2017-09-28T09:23:51.352Z,18.90
2017-09-28T09:26:19.832Z,19.10
2017-09-28T09:28:48.223Z,19.30
2017-09-28T09:31:18.457Z,19.50
2017-09-28T09:33:48.284Z,19.70
2017-09-28T09:36:16.658Z,19.80
2017-09-28T09:38:45.043Z,20.00
2017-09-28T09:41:14.098Z,20.10
2017-09-28T09:46:12.464Z,20.20
2017-09-28T09:48:40.785Z,20.40
2017-09-28T09:51:09.143Z,20.40
2017-09-28T09:53:37.603Z,20.50
2017-09-28T09:56:06.656Z,20.60
2017-09-28T09:58:34.957Z,20.70
2017-09-28T10:01:03.353Z,20.80
2017-09-28T10:03:31.715Z,20.90
2017-09-28T10:06:00.068Z,21.00
2017-09-28T10:11:08.030Z,21.40
2017-09-28T10:13:39.936Z,21.50
2017-09-28T10:18:43.962Z,21.50
2017-09-28T10:23:41.906Z,21.60
2017-09-28T10:26:10.918Z,21.50
2017-09-28T10:28:39.672Z,21.50
2017-09-28T10:33:39.778Z,21.50
2017-09-28T10:36:08.076Z,21.40
2017-09-28T10:38:36.424Z,21.30
2017-09-28T10:41:04.779Z,21.40
2017-09-28T10:43:33.120Z,21.30
2017-09-28T10:46:01.826Z,21.20
2017-09-28T10:48:30.452Z,21.20
2017-09-28T10:50:59.556Z,21.10
2017-09-28T10:53:27.854Z,21.10
2017-09-28T10:55:56.812Z,21.10
2017-09-28T10:58:25.134Z,21.00
2017-09-28T11:00:53.463Z,21.00
2017-09-28T11:03:21.861Z,21.00
2017-09-28T11:05:51.084Z,21.00
2017-09-28T11:08:19.778Z,21.00
2017-09-28T11:10:48.608Z,20.90
2017-09-28T11:13:18.040Z,20.90
2017-09-28T11:15:46.328Z,20.90
2017-09-28T11:18:14.659Z,20.90
2017-09-28T11:20:42.951Z,20.90
2017-09-28T11:23:11.248Z,20.80
2017-09-28T11:25:39.614Z,20.90
2017-09-28T11:28:09.032Z,20.90
2017-09-28T11:30:38.089Z,20.90
2017-09-28T11:33:07.559Z,20.90
2017-09-28T11:35:35.847Z,20.80
2017-09-28T11:38:04.136Z,20.90
2017-09-28T11:40:33.979Z,21.00
2017-09-28T11:43:02.323Z,21.00
2017-09-28T11:45:30.670Z,21.00
2017-09-28T11:47:59.810Z,21.00
2017-09-28T11:50:28.902Z,21.00
2017-09-28T11:55:27.932Z,21.00
2017-09-28T11:57:56.230Z,21.10
2017-09-28T12:00:24.604Z,21.10
2017-09-28T12:02:54.619Z,21.00
2017-09-28T12:05:22.911Z,20.90
2017-09-28T12:07:51.346Z,20.90
2017-09-28T12:10:20.870Z,21.00
2017-09-28T12:12:49.295Z,20.80
2017-09-28T12:15:17.747Z,20.90
2017-09-28T12:17:46.079Z,20.90
2017-09-28T12:20:15.927Z,20.90
2017-09-28T12:22:44.247Z,20.90
2017-09-28T12:25:12.633Z,20.90
2017-09-28T12:27:41.727Z,20.80
2017-09-28T12:30:11.524Z,20.90
2017-09-28T12:32:39.912Z,21.00
2017-09-28T12:37:37.717Z,21.00
2017-09-28T12:40:06.063Z,21.10
2017-09-28T12:42:34.357Z,21.10
2017-09-28T12:45:02.643Z,21.30
2017-09-28T12:47:31.744Z,21.30
2017-09-28T12:50:00.523Z,21.40
2017-09-28T12:52:29.231Z,21.40
2017-09-28T12:54:57.751Z,21.50
2017-09-28T12:59:55.617Z,21.50
2017-09-28T13:02:24.007Z,21.70
2017-09-28T13:04:52.319Z,21.80
2017-09-28T13:07:22.119Z,21.90
2017-09-28T13:09:51.340Z,22.00
2017-09-28T13:12:20.791Z,22.00
2017-09-28T13:14:49.532Z,22.10
2017-09-28T13:17:17.895Z,22.30
2017-09-28T13:19:46.192Z,22.30
2017-09-28T13:24:44.920Z,22.50
2017-09-28T13:27:14.044Z,22.30
2017-09-28T13:29:42.384Z,22.40
2017-09-28T13:32:10.727Z,22.40
2017-09-28T13:34:39.058Z,22.40
2017-09-28T13:37:07.400Z,22.50
2017-09-28T13:42:06.036Z,22.50
2017-09-28T13:44:35.511Z,22.60
2017-09-28T13:47:03.854Z,22.50
2017-09-28T13:49:33.284Z,22.40
2017-09-28T13:52:03.139Z,22.30
2017-09-28T13:54:32.879Z,22.30
2017-09-28T13:57:01.960Z,22.40
2017-09-28T13:59:31.858Z,22.30
2017-09-28T14:02:01.364Z,22.20
2017-09-28T14:04:30.423Z,22.30
2017-09-28T14:06:58.758Z,22.30
2017-09-28T14:09:27.396Z,22.30
2017-09-28T14:11:56.455Z,22.40
2017-09-28T14:14:24.782Z,22.40
2017-09-28T14:16:53.128Z,22.50
2017-09-28T14:19:21.419Z,22.60
2017-09-28T14:21:49.783Z,22.70
2017-09-28T14:26:47.736Z,22.70
2017-09-28T14:29:16.856Z,22.60
2017-09-28T14:31:45.241Z,22.70
2017-09-28T14:34:14.314Z,22.80
2017-09-28T14:36:42.608Z,22.80
2017-09-28T14:39:11.451Z,22.80
2017-09-28T14:41:39.743Z,22.60
2017-09-28T14:44:09.247Z,22.60
2017-09-28T14:46:37.607Z,22.50
2017-09-28T14:49:06.292Z,22.60
2017-09-28T14:51:34.577Z,22.70
2017-09-28T14:59:28.563Z,22.60
2017-09-28T15:01:56.843Z,22.70
2017-09-28T15:04:25.132Z,22.60
2017-09-28T15:06:54.723Z,22.70
2017-09-28T15:09:23.444Z,22.80
2017-09-28T15:11:51.780Z,22.80
2017-09-28T15:14:20.243Z,22.70
2017-09-28T15:16:48.932Z,22.80
2017-09-28T15:19:17.230Z,22.90
2017-09-28T15:21:45.611Z,22.90
2017-09-28T15:24:15.495Z,22.90
2017-09-28T15:29:13.731Z,22.90
2017-09-28T15:31:42.196Z,22.90
2017-09-28T15:34:10.573Z,22.90
2017-09-28T15:36:38.943Z,22.90
2017-09-28T15:39:07.241Z,22.90
2017-09-28T15:41:37.060Z,23.00
2017-09-28T15:44:06.858Z,23.00
2017-09-28T15:49:05.102Z,23.10
2017-09-28T15:51:33.407Z,23.00
2017-09-28T15:54:03.089Z,23.00
2017-09-28T15:56:31.876Z,23.00
2017-09-28T15:59:00.979Z,22.90
2017-09-28T16:01:29.264Z,22.90
2017-09-28T16:06:27.174Z,22.90
2017-09-28T16:08:55.448Z,22.90
2017-09-28T16:11:23.778Z,22.90
2017-09-28T16:13:52.063Z,22.80
2017-09-28T16:16:20.410Z,22.80
2017-09-28T16:18:48.776Z,22.70
2017-09-28T16:21:17.110Z,22.70
2017-09-28T16:23:46.551Z,22.70
2017-09-28T16:26:14.923Z,22.60
2017-09-28T16:28:43.393Z,22.60
2017-09-28T16:31:12.448Z,22.60
2017-09-28T16:33:41.723Z,22.60
2017-09-28T16:36:10.992Z,22.60
2017-09-28T16:38:39.679Z,22.60
2017-09-28T16:41:08.047Z,22.50
2017-09-28T16:43:37.199Z,22.40
2017-09-28T16:48:36.496Z,22.30
2017-09-28T16:51:05.183Z,22.20
2017-09-28T16:53:33.499Z,22.20
2017-09-28T16:56:01.871Z,22.20
2017-09-28T16:58:30.167Z,22.20
2017-09-28T17:00:58.454Z,22.20
2017-09-28T17:03:28.287Z,22.20
2017-09-28T17:05:56.599Z,22.20
2017-09-28T17:08:24.916Z,22.20
2017-09-28T17:10:53.243Z,22.20
2017-09-28T17:13:21.667Z,22.10
2017-09-28T17:15:50.355Z,22.20
2017-09-28T17:20:48.683Z,22.20
2017-09-28T17:25:46.967Z,22.20
2017-09-28T17:28:15.384Z,22.20
2017-09-28T17:30:43.696Z,22.20
2017-09-28T17:35:42.139Z,22.30
2017-09-28T17:38:11.558Z,22.20
2017-09-28T17:40:39.986Z,22.20
2017-09-28T17:43:08.346Z,22.20
2017-09-28T17:45:36.643Z,22.20
2017-09-28T17:48:04.983Z,22.20
2017-09-28T17:50:34.447Z,22.10
2017-09-28T17:53:02.755Z,22.10
2017-09-28T17:55:31.195Z,22.00
2017-09-28T17:57:59.511Z,22.00
2017-09-28T18:00:28.553Z,21.90
2017-09-28T18:02:57.904Z,21.90
2017-09-28T18:05:26.583Z,21.90
2017-09-28T18:07:54.863Z,21.80
2017-09-28T18:10:23.210Z,21.80
2017-09-28T18:12:51.572Z,21.80
2017-09-28T18:15:19.872Z,21.70
2017-09-28T18:17:48.232Z,21.60
2017-09-28T18:20:17.278Z,21.60
2017-09-28T18:22:45.562Z,21.50
2017-09-28T18:25:14.278Z,21.50
2017-09-28T18:27:44.113Z,21.60
2017-09-28T18:30:12.426Z,21.50
2017-09-28T18:35:10.653Z,21.40
2017-09-28T18:37:38.966Z,21.30
2017-09-28T18:40:07.356Z,21.30
2017-09-28T18:45:05.542Z,21.30
2017-09-28T18:47:34.711Z,21.20
2017-09-28T18:50:02.980Z,21.20
2017-09-28T18:52:32.027Z,21.20
2017-09-28T18:55:01.080Z,21.20
2017-09-28T18:57:30.875Z,21.20
2017-09-28T18:59:59.919Z,21.20
2017-09-28T19:02:29.398Z,21.20
2017-09-28T19:04:57.794Z,21.20
2017-09-28T19:07:26.065Z,21.10
2017-09-28T19:09:55.999Z,21.10
2017-09-28T19:12:24.671Z,20.90
2017-09-28T19:15:12.458Z,20.90
2017-09-28T19:17:42.012Z,20.80
2017-09-28T19:20:11.060Z,20.60
2017-09-28T19:22:40.178Z,20.50
2017-09-28T19:27:38.469Z,20.30
2017-09-28T19:30:10.648Z,20.20
2017-09-28T19:32:38.926Z,20.20
2017-09-28T19:35:07.233Z,20.20
2017-09-28T19:37:35.610Z,20.20
2017-09-28T19:40:05.018Z,20.20
2017-09-28T19:42:33.296Z,20.10
2017-09-28T19:45:01.624Z,20.10
2017-09-28T19:47:31.424Z,20.10
2017-09-28T19:50:00.473Z,20.00
2017-09-28T19:52:29.936Z,20.00
2017-09-28T19:54:58.212Z,20.00
2017-09-28T19:57:26.563Z,20.00
2017-09-28T19:59:54.947Z,19.90
2017-09-28T20:02:24.735Z,19.90
2017-09-28T20:04:53.120Z,20.00
2017-09-28T20:07:22.320Z,19.90
2017-09-28T20:09:51.379Z,19.90
2017-09-28T20:12:20.479Z,19.90
2017-09-28T20:14:50.327Z,19.90
2017-09-28T20:17:18.606Z,19.80
2017-09-28T20:19:46.899Z,19.60
2017-09-28T20:24:44.845Z,19.60
2017-09-28T20:27:13.935Z,19.60
2017-09-28T20:29:42.555Z,19.60
2017-09-28T20:32:11.723Z,19.60
2017-09-28T20:34:40.176Z,19.60
2017-09-28T20:39:38.412Z,19.60
2017-09-28T20:42:07.914Z,19.60
2017-09-28T20:44:36.704Z,19.50
2017-09-28T20:47:05.100Z,19.50
2017-09-28T20:49:34.435Z,19.40
2017-09-28T20:52:04.383Z,19.40
2017-09-28T20:54:32.832Z,19.50
2017-09-28T20:57:02.333Z,19.50
2017-09-28T21:02:01.024Z,19.50
2017-09-28T21:04:29.708Z,19.40
2017-09-28T21:06:58.927Z,19.50
2017-09-28T21:09:27.239Z,19.40
2017-09-28T21:11:55.523Z,19.50
2017-09-28T21:14:24.290Z,19.40
2017-09-28T21:16:53.754Z,19.40
2017-09-28T21:19:22.119Z,19.40
2017-09-28T21:21:50.448Z,19.40
2017-09-28T21:24:19.513Z,19.50
2017-09-28T21:26:47.847Z,19.50
2017-09-28T21:29:17.703Z,19.50
2017-09-28T21:31:46.039Z,19.50
2017-09-28T21:34:14.331Z,19.50
2017-09-28T21:36:43.060Z,19.50
2017-09-28T21:39:12.483Z,19.50
2017-09-28T21:41:40.781Z,19.50
2017-09-28T21:44:09.132Z,19.50
2017-09-28T21:46:37.413Z,19.50
2017-09-28T21:49:05.899Z,19.40
2017-09-28T21:51:35.245Z,19.30
2017-09-28T21:54:03.580Z,19.20
2017-09-28T21:56:33.376Z,19.10
2017-09-28T21:59:01.794Z,19.00
2017-09-28T22:01:30.129Z,19.00
2017-09-28T22:03:58.440Z,19.00
2017-09-28T22:06:27.631Z,18.90
2017-09-28T22:08:55.989Z,18.90
2017-09-28T22:11:24.675Z,18.90
2017-09-28T22:13:54.208Z,18.90
2017-09-28T22:16:23.999Z,19.00
2017-09-28T22:18:52.363Z,19.00
2017-09-28T22:21:20.703Z,19.00
2017-09-28T22:23:50.496Z,19.00
2017-09-28T22:26:19.190Z,19.00
2017-09-28T22:28:47.543Z,19.00
2017-09-28T22:31:16.667Z,19.00
2017-09-28T22:33:44.956Z,19.10
2017-09-28T22:36:13.298Z,19.10
2017-09-28T22:38:42.361Z,19.10
2017-09-28T22:41:11.780Z,19.00
2017-09-28T22:43:40.137Z,19.10
2017-09-28T22:46:08.463Z,19.00
2017-09-28T22:48:37.626Z,19.10
2017-09-28T22:51:06.715Z,19.00
2017-09-28T22:53:35.779Z,19.00
2017-09-28T22:56:04.058Z,19.00
2017-09-28T22:58:32.408Z,19.10
2017-09-28T23:01:01.856Z,19.10
2017-09-28T23:03:31.020Z,19.10
2017-09-28T23:06:00.135Z,19.10
2017-09-28T23:08:28.451Z,19.00
2017-09-28T23:10:56.905Z,19.00
2017-09-28T23:13:25.448Z,19.00
2017-09-28T23:15:53.791Z,19.00
2017-09-28T23:18:23.218Z,19.10
2017-09-28T23:20:51.603Z,19.00
2017-09-28T23:23:19.937Z,19.10
2017-09-28T23:25:48.318Z,19.10
2017-09-28T23:28:18.151Z,19.20
2017-09-28T23:35:45.586Z,19.20
2017-09-28T23:40:43.791Z,19.00
2017-09-28T23:45:42.039Z,19.10
2017-09-28T23:48:10.328Z,19.00
2017-09-28T23:50:38.884Z,19.00
2017-09-28T23:53:07.166Z,19.00
2017-09-28T23:55:35.451Z,19.00
2017-09-28T23:58:05.019Z,19.10
